Davison Army Air Field
KDAA : now visible

Airfield :











YOU CAN JOIN US ON...

 
LOGIN :

Register | Disclaimer

   EN    FR    IT 

 









Legend :    VFR   Marginal VFR   IFR   Intensive IFR   Very Intensive IFR
Visi :
Ceiling :
>= 8 km
>= 3000ft
5 to 8 km
1000 to 3000 ft
1500m to 5 km
500 to 1000 ft
800 to 1500m
200 to 500 ft
< 800m
< 200 ft
Symbols :   Thunderstorms  Fog  Heavy snow  Heavy precipitations  Wind > 20 kt






- Airport Elevation : 73 ft


KDAA - Davison Army Air Field

CURRENT METAR :
  • 291536Z AUTO 00000KT 5SM -RA BR OVC004 16/16 A2963 RMK AO2 SLP036 $

EXPIRED METARs :
  • 291526Z AUTO 00000KT 2 3/4SM RA BR OVC003 16/16 A2963 RMK AO2 VIS 7/8V2 3/4 SLP036 $
  • 291516Z AUTO 00000KT 7/8SM R32/2600VP6000FT +RA BR VV003 16/16 A2964 RMK AO2 VIS 7/8V1 7/8 SLP040 $
  • 291506Z AUTO 00000KT 1 7/8SM +RA BR OVC005 16/16 A2964 RMK AO2 VIS 1 7/8V5 SLP040 $
  • 291456Z AUTO 00000KT 5SM RA BR OVC005 16/15 A2965 RMK AO2 SLP043 P0023 60048 T01600154 57038 $
  • 291446Z AUTO 00000KT 1 3/4SM RA BR OVC005 16/15 A2966 RMK AO2 VIS 1 1/4V3 SLP046 $
  • 291426Z AUTO 00000KT 7SM -RA OVC005 16/15 A2968 RMK AO2 SLP053 $
  • 291406Z AUTO 00000KT 3SM +RA BR OVC004 15/15 A2970 RMK AO2 CIG 004V006 SLP060 $
  • 291356Z AUTO 10004KT 3SM RA BR OVC006 15/15 A2970 RMK AO2 SLP060 P0020 T01530145 $
  • 291336Z AUTO 00000KT 6SM RA BR OVC006 15/14 A2971 RMK AO2 SLP063 $
  • 291326Z AUTO 03003KT 6SM -RA BR OVC005 15/14 A2971 RMK AO2 SLP063 $
  • 291321Z AUTO 00000KT 2 3/4SM -RA BR OVC005 15/14 A2972 RMK AO2 VIS 2 1/4V7 SLP067 $
  • 291315Z VRB03KT 2SM +RA BR OVC005 15/14 A2972 RMK AO2A

TAF AMD TAF KDAA
Valid from the 29 at 13:00 until the 30 at 18:00 UTC


291350Z 2913/3018 05009KT 6000 -RA BR BKN005 BKN007 OVC010 QNH2955INS
TEMPO 2912/2914 SCT005 BKN007
BECMG 2913/2914 11010KT 4800 -RA BR SCT004 BKN006 OVC010 520105 QNH2940INS
TEMPO 2914/2918 BKN004
BECMG 2917/2918 11012G20KT 3200 -RA BR BKN004 OVC007 520105 QNH2931INS
BECMG 2923/2924 36012G18KT 6000 -RA BR SCT006 BKN008 OVC010 520203 QNH2929INS
BECMG 3005/3006 35010G15KT 9000 -SHRA SCT006 OVC008 520203 QNH2955INS
BECMG 3011/3012 32015G25KT 9999 VCSH SCT010 BKN020 OVC050 510102 QNH2972INS TX19/2919Z TN09/3008Z
KZDC FIR / North America



MET'MAP, your aeronautical weather chart ! - Copyright ORBIFLY December 2007 - Disclaimer

ORBIFLY MET'MAP TEAM :

Programming & Development : Alexandra Zaïnal
Concept & original design : Baudouin d'Aumeries
Assistance for programming : Marc-Olivier Méhu
Technical & hardware support : Manuel Goepfert

Contact : metmap@orbifly.com




SOURCES & CREDITS :

   NOAA       Earth
Advisory